Time;durP1;ratioP1;P1;durP2;ratioP2;P2;SDS_P1;SDS_P2;PMS_P1;PMS_P2;Temp;Humidity;BMP_temperature;BMP_pressure;BME280_temperature;BME280_humidity;BME280_pressure;Samples;Min_cycle;Max_cycle;Signal;HPM_P1;HPM_P2
2022/03/07 00:00:26;;;;;;;17.25;9.50;;;-0.20;99.90;;;;;;5034807;28;20045;-75
2022/03/07 00:02:52;;;;;;;14.27;9.55;;;-0.20;99.90;;;;;;5034943;28;20045;-75
2022/03/07 00:05:18;;;;;;;15.40;9.73;;;-0.20;99.90;;;;;;5051207;28;20048;-75
2022/03/07 00:07:44;;;;;;;20.15;10.25;;;-0.20;99.90;;;;;;5034960;28;20503;-75
2022/03/07 00:10:10;;;;;;;16.33;10.10;;;-0.20;99.90;;;;;;5050887;28;20044;-75
2022/03/07 00:12:36;;;;;;;13.02;8.98;;;-0.40;99.90;;;;;;5034522;28;20056;-75
2022/03/07 00:15:02;;;;;;;13.10;9.13;;;-0.30;99.90;;;;;;5051081;28;20404;-75
2022/03/07 00:17:28;;;;;;;12.88;8.73;;;-0.30;99.90;;;;;;5034742;28;20032;-75
2022/03/07 00:19:54;;;;;;;13.57;9.43;;;-0.30;99.90;;;;;;5034373;28;20048;-75
2022/03/07 00:22:19;;;;;;;12.85;9.15;;;-0.30;99.90;;;;;;5001601;28;20049;-75
2022/03/07 00:24:45;;;;;;;11.13;7.15;;;-0.10;99.90;;;;;;5034583;28;20112;-75
2022/03/07 00:27:11;;;;;;;13.25;8.40;;;-0.30;99.90;;;;;;5051192;28;20045;-75
2022/03/07 00:29:36;;;;;;;12.50;7.70;;;-0.30;99.90;;;;;;5034400;28;20049;-75
2022/03/07 00:32:02;;;;;;;15.60;7.82;;;-0.30;99.90;;;;;;5034304;28;20041;-75
2022/03/07 00:34:28;;;;;;;10.45;7.90;;;-0.30;99.90;;;;;;5050586;28;20084;-76
2022/03/07 00:36:54;;;;;;;12.63;7.57;;;-0.30;99.90;;;;;;5050713;28;20053;-75
2022/03/07 00:39:19;;;;;;;14.30;6.82;;;-0.30;99.90;;;;;;5034394;28;20033;-75
2022/03/07 00:41:45;;;;;;;11.32;7.45;;;-0.40;99.90;;;;;;5050482;28;20075;-75
2022/03/07 00:44:11;;;;;;;15.82;8.30;;;-0.40;99.90;;;;;;5033930;28;20041;-73
2022/03/07 00:46:36;;;;;;;14.95;8.45;;;-0.40;99.90;;;;;;5017615;28;20253;-73
2022/03/07 00:49:02;;;;;;;16.20;10.93;;;-0.40;99.90;;;;;;5050735;28;20052;-74
2022/03/07 00:51:28;;;;;;;15.38;9.57;;;-0.40;99.90;;;;;;5050649;28;20084;-74
2022/03/07 00:53:53;;;;;;;14.80;10.05;;;-0.50;99.90;;;;;;5050491;28;20102;-73
2022/03/07 00:56:19;;;;;;;14.55;9.10;;;-0.40;99.90;;;;;;5017415;28;20371;-73
2022/03/07 00:58:45;;;;;;;15.77;9.85;;;-0.50;99.90;;;;;;5033728;28;20044;-73
2022/03/07 01:01:11;;;;;;;13.43;8.98;;;-0.50;99.90;;;;;;5050620;28;20044;-74
2022/03/07 01:03:36;;;;;;;12.68;8.88;;;-0.60;99.90;;;;;;5033872;28;20037;-74
2022/03/07 01:06:02;;;;;;;18.17;11.63;;;-0.60;99.90;;;;;;5050501;28;20037;-74
2022/03/07 01:08:28;;;;;;;12.77;9.95;;;-0.60;99.90;;;;;;5034196;28;20037;-74
2022/03/07 01:10:54;;;;;;;14.75;10.15;;;-0.60;99.90;;;;;;5050287;28;20099;-74
2022/03/07 01:13:22;;;;;;;16.80;9.43;;;-0.60;99.90;;;;;;5050088;28;20045;-74
2022/03/07 01:15:48;;;;;;;18.08;11.00;;;-0.60;99.90;;;;;;5050217;28;20045;-74
2022/03/07 01:18:13;;;;;;;14.88;9.85;;;-0.60;99.90;;;;;;5050579;28;20090;-74
2022/03/07 01:20:40;;;;;;;13.40;9.27;;;-0.60;99.90;;;;;;5033532;28;20079;-74
2022/03/07 01:23:05;;;;;;;18.02;9.77;;;-0.70;99.90;;;;;;5052762;28;20045;-74
2022/03/07 01:25:31;;;;;;;14.25;9.60;;;-0.70;99.90;;;;;;5037508;28;20037;-74
2022/03/07 01:27:57;;;;;;;12.73;8.98;;;-0.70;99.90;;;;;;5054151;28;20094;-74
2022/03/07 01:30:22;;;;;;;14.60;9.40;;;-0.70;99.90;;;;;;5037560;28;20090;-74
2022/03/07 01:32:48;;;;;;;13.75;9.40;;;-0.80;99.90;;;;;;5037448;28;20051;-74
2022/03/07 01:35:14;;;;;;;14.27;9.07;;;-0.70;99.90;;;;;;5020964;28;20424;-74
2022/03/07 01:37:40;;;;;;;14.93;10.38;;;-0.80;99.90;;;;;;5037331;28;20041;-74
2022/03/07 01:40:06;;;;;;;17.50;10.13;;;-0.80;99.90;;;;;;5054376;28;20443;-73
2022/03/07 01:42:31;;;;;;;14.00;8.88;;;-0.80;99.90;;;;;;5037332;28;20079;-73
2022/03/07 01:45:15;;;;;;;14.88;10.27;;;-0.80;99.90;;;;;;5037121;28;20076;-73
2022/03/07 01:47:41;;;;;;;17.10;10.18;;;-0.80;99.90;;;;;;5053711;28;20056;-73
2022/03/07 01:50:11;;;;;;;15.82;9.77;;;-0.90;99.90;;;;;;5054028;28;20091;-73
2022/03/07 01:52:40;;;;;;;14.90;10.40;;;-0.80;99.90;;;;;;5037063;28;20041;-74
2022/03/07 01:55:08;;;;;;;11.63;8.82;;;-0.90;99.90;;;;;;5036903;28;20111;-74
2022/03/07 01:57:39;;;;;;;15.70;9.30;;;-0.90;99.90;;;;;;5053634;28;20127;-74
2022/03/07 02:00:08;;;;;;;15.98;9.65;;;-0.80;99.90;;;;;;5053962;28;20048;-73
2022/03/07 02:02:34;;;;;;;13.23;9.77;;;-0.80;99.90;;;;;;5053907;28;20041;-74
2022/03/07 02:05:00;;;;;;;12.38;9.45;;;-0.90;99.90;;;;;;5036848;28;20045;-74
2022/03/07 02:07:26;;;;;;;13.95;9.63;;;-0.90;99.90;;;;;;5053460;28;20144;-73
2022/03/07 02:09:52;;;;;;;14.05;9.50;;;-0.90;99.90;;;;;;5036667;28;20045;-74
2022/03/07 02:12:18;;;;;;;14.90;9.57;;;-1.00;99.90;;;;;;5053261;28;20372;-74
2022/03/07 02:14:44;;;;;;;17.27;10.52;;;-1.00;99.90;;;;;;5053294;28;20399;-73
2022/03/07 02:17:09;;;;;;;15.90;9.55;;;-1.00;99.90;;;;;;5053241;28;20045;-74
2022/03/07 02:19:36;;;;;;;13.68;9.82;;;-1.00;99.90;;;;;;5020366;28;20055;-74
2022/03/07 02:22:03;;;;;;;14.98;9.45;;;-1.00;99.90;;;;;;5053393;28;20056;-73
2022/03/07 02:24:29;;;;;;;17.05;9.40;;;-1.00;99.90;;;;;;5036571;28;20119;-73
2022/03/07 02:27:03;;;;;;;11.50;8.43;;;-1.00;99.90;;;;;;5036573;28;20087;-73
2022/03/07 02:29:30;;;;;;;12.85;8.48;;;-1.00;99.90;;;;;;5053106;28;20076;-73
2022/03/07 02:31:56;;;;;;;14.95;8.65;;;-1.10;99.90;;;;;;5020315;28;20048;-73
2022/03/07 02:34:22;;;;;;;18.45;8.95;;;-1.10;99.90;;;;;;5036470;28;20041;-73
2022/03/07 02:36:48;;;;;;;17.02;8.93;;;-1.10;99.90;;;;;;5020094;28;20047;-73
2022/03/07 02:39:14;;;;;;;14.90;9.32;;;-1.20;99.90;;;;;;5036804;28;20051;-74
2022/03/07 02:41:41;;;;;;;13.23;9.48;;;1.10;99.90;;;;;;5036182;28;20076;-73
2022/03/07 02:44:07;;;;;;;14.20;9.85;;;-1.00;99.90;;;;;;5019992;28;20080;-73
2022/03/07 02:46:33;;;;;;;15.40;9.93;;;-1.20;99.90;;;;;;5036087;28;20052;-74
2022/03/07 02:48:59;;;;;;;17.52;9.60;;;-1.20;99.90;;;;;;5052573;28;20064;-74
2022/03/07 02:51:25;;;;;;;11.93;8.48;;;-1.30;99.90;;;;;;5052546;28;20520;-74
2022/03/07 02:53:50;;;;;;;15.70;9.52;;;0.70;99.90;;;;;;5019727;28;20044;-74
2022/03/07 02:56:17;;;;;;;11.88;8.68;;;-1.30;99.90;;;;;;5052562;28;20144;-74
2022/03/07 02:58:43;;;;;;;16.63;9.50;;;-1.30;99.90;;;;;;5036066;28;20120;-74
2022/03/07 03:01:09;;;;;;;16.92;9.00;;;-1.00;99.90;;;;;;5052857;28;20036;-74
2022/03/07 03:03:34;;;;;;;15.20;10.10;;;-1.30;99.90;;;;;;5052456;28;20067;-74
2022/03/07 03:06:00;;;;;;;15.27;9.15;;;-1.30;99.90;;;;;;5035787;28;20349;-74
2022/03/07 03:08:26;;;;;;;15.93;9.13;;;-1.40;99.90;;;;;;5052487;28;20044;-74
2022/03/07 03:10:53;;;;;;;14.80;9.30;;;-1.40;99.90;;;;;;5052343;28;20053;-74
2022/03/07 03:13:22;;;;;;;15.18;9.80;;;-1.30;99.90;;;;;;5035777;28;20428;-74
2022/03/07 03:15:49;;;;;;;17.50;9.45;;;-1.50;99.90;;;;;;5035962;28;20033;-74
2022/03/07 03:18:16;;;;;;;17.33;10.43;;;-1.50;99.90;;;;;;5052081;28;20120;-74
2022/03/07 03:20:42;;;;;;;16.30;9.20;;;-1.60;99.90;;;;;;5052170;28;20033;-74
2022/03/07 03:23:08;;;;;;;19.67;11.32;;;-1.40;99.90;;;;;;5035555;28;20068;-74
2022/03/07 03:25:33;;;;;;;16.13;11.38;;;-1.40;99.90;;;;;;5035365;28;20056;-74
2022/03/07 03:27:59;;;;;;;17.02;11.20;;;-1.20;99.90;;;;;;5051999;28;20044;-74
2022/03/07 03:30:25;;;;;;;15.88;10.38;;;-1.50;99.90;;;;;;5035594;28;20041;-74
2022/03/07 03:32:51;;;;;;;19.00;10.65;;;-1.50;99.90;;;;;;5035175;28;20052;-74
2022/03/07 03:35:17;;;;;;;17.33;11.30;;;0.30;99.90;;;;;;5051759;28;20040;-74
2022/03/07 03:37:42;;;;;;;20.60;11.00;;;-1.50;99.90;;;;;;5051839;28;20376;-74
2022/03/07 03:40:10;;;;;;;15.80;11.95;;;-1.50;99.90;;;;;;5019049;28;20045;-74
2022/03/07 03:42:36;;;;;;;19.80;10.98;;;-1.50;99.90;;;;;;5035231;28;20120;-74
2022/03/07 03:45:08;;;;;;;15.18;11.40;;;-1.50;99.90;;;;;;5050907;28;20036;-74
2022/03/07 03:47:38;;;;;;;;;;;-1.50;99.90;;;;;;5051973;28;20049;-74
2022/03/07 03:50:06;;;;;;;19.90;10.90;;;-1.50;99.90;;;;;;5051445;28;20009;-74
2022/03/07 03:52:32;;;;;;;18.55;10.57;;;-1.50;99.90;;;;;;5051409;28;20353;-74
2022/03/07 03:54:58;;;;;;;16.88;10.35;;;-1.50;99.90;;;;;;5034610;28;20049;-74
2022/03/07 03:57:24;;;;;;;16.90;11.05;;;-1.40;99.90;;;;;;5034990;28;20385;-74
2022/03/07 03:59:50;;;;;;;15.60;10.88;;;-1.20;99.90;;;;;;5034724;28;20032;-74
2022/03/07 04:02:16;;;;;;;16.55;11.13;;;-1.40;99.90;;;;;;5018650;28;20576;-74
2022/03/07 04:04:42;;;;;;;22.30;11.52;;;-1.30;99.90;;;;;;5034988;28;20427;-74
2022/03/07 04:07:07;;;;;;;17.75;10.98;;;-1.40;99.90;;;;;;5051282;28;20052;-74
2022/03/07 04:09:34;;;;;;;17.08;10.70;;;-1.40;99.90;;;;;;5035144;28;20131;-74
2022/03/07 04:12:00;;;;;;;17.25;10.85;;;-1.50;99.90;;;;;;5051529;28;20094;-74
2022/03/07 04:14:26;;;;;;;15.30;10.88;;;-1.50;99.90;;;;;;5034822;28;20041;-74
2022/03/07 04:16:51;;;;;;;17.50;11.55;;;-1.40;99.90;;;;;;5051698;28;20047;-74
2022/03/07 04:19:17;;;;;;;17.70;11.18;;;-1.40;99.90;;;;;;5034290;28;20041;-74
2022/03/07 04:21:43;;;;;;;17.48;11.07;;;-1.30;99.90;;;;;;5051114;28;20051;-74
2022/03/07 04:24:11;;;;;;;17.10;10.43;;;-1.20;99.90;;;;;;5051074;28;20132;-74
2022/03/07 04:26:38;;;;;;;17.73;11.60;;;-1.20;99.90;;;;;;5051049;28;20052;-74
2022/03/07 04:29:07;;;;;;;21.98;12.70;;;-0.70;99.90;;;;;;5050988;28;20049;-74
2022/03/07 04:31:35;;;;;;;19.27;11.63;;;-1.30;99.90;;;;;;5034547;28;20049;-75
2022/03/07 04:34:01;;;;;;;18.25;10.57;;;-0.20;99.90;;;;;;5050769;28;20044;-74
2022/03/07 04:36:26;;;;;;;15.90;11.63;;;-1.20;99.90;;;;;;5050782;28;20037;-74
2022/03/07 04:38:52;;;;;;;15.82;11.13;;;-1.20;99.90;;;;;;5050677;28;20045;-74
2022/03/07 04:41:18;;;;;;;21.05;11.60;;;-1.30;99.90;;;;;;5050744;28;20094;-74
2022/03/07 04:43:44;;;;;;;20.13;12.63;;;-1.30;99.90;;;;;;5034057;28;20127;-74
2022/03/07 04:46:10;;;;;;;16.88;11.65;;;-1.20;99.90;;;;;;5034307;28;20037;-75
2022/03/07 04:48:37;;;;;;;20.77;11.88;;;-1.20;99.90;;;;;;5050585;28;20114;-74
2022/03/07 04:51:03;;;;;;;21.20;13.30;;;-0.40;99.90;;;;;;5050460;28;20461;-74
2022/03/07 04:53:29;;;;;;;20.58;12.95;;;-1.00;99.90;;;;;;5033945;28;20492;-74
2022/03/07 04:55:55;;;;;;;17.13;11.43;;;-0.80;99.90;;;;;;5050213;28;20053;-74
2022/03/07 04:58:21;;;;;;;23.55;12.65;;;-1.10;99.90;;;;;;5034206;28;20047;-74
2022/03/07 05:00:47;;;;;;;18.80;11.50;;;-1.20;99.90;;;;;;5017692;28;20127;-74
2022/03/07 05:03:13;;;;;;;18.60;12.13;;;-1.20;99.90;;;;;;5050666;28;20039;-74
2022/03/07 05:05:38;;;;;;;19.73;12.40;;;-1.00;99.90;;;;;;5033701;28;20044;-75
2022/03/07 05:08:04;;;;;;;17.05;11.43;;;-0.90;99.90;;;;;;5050451;28;20132;-75
2022/03/07 05:10:30;;;;;;;19.60;12.65;;;-1.30;99.90;;;;;;5033667;28;20457;-74
2022/03/07 05:12:56;;;;;;;19.50;11.88;;;-1.20;99.90;;;;;;5050253;28;20079;-74
2022/03/07 05:15:22;;;;;;;19.35;11.90;;;-1.00;99.90;;;;;;5017411;28;20041;-75
2022/03/07 05:17:53;;;;;;;24.73;11.45;;;-1.10;99.90;;;;;;5050197;28;20474;-75
2022/03/07 05:20:20;;;;;;;17.88;12.85;;;-1.00;99.90;;;;;;5018017;28;20506;-74
2022/03/07 05:22:46;;;;;;;21.15;13.30;;;-1.40;99.90;;;;;;5033603;28;20037;-75
2022/03/07 05:25:13;;;;;;;17.55;11.50;;;-1.20;99.90;;;;;;5050435;28;20389;-74
2022/03/07 05:27:39;;;;;;;24.92;13.60;;;-1.00;99.90;;;;;;5050625;28;20040;-74
2022/03/07 05:30:07;;;;;;;19.48;12.60;;;-1.00;99.90;;;;;;5050179;28;20053;-74
2022/03/07 05:32:33;;;;;;;18.88;12.65;;;-1.10;99.90;;;;;;5033539;28;20116;-74
2022/03/07 05:34:59;;;;;;;25.95;13.77;;;-1.20;99.90;;;;;;5050079;28;20052;-74
2022/03/07 05:37:25;;;;;;;21.25;13.52;;;-1.00;99.90;;;;;;5033987;28;20044;-74
2022/03/07 05:39:50;;;;;;;28.48;14.57;;;-1.00;99.90;;;;;;5049940;28;20041;-74
2022/03/07 05:42:17;;;;;;;22.73;14.15;;;-1.00;99.90;;;;;;5050011;28;20204;-75
2022/03/07 05:44:43;;;;;;;21.90;14.75;;;-1.00;99.90;;;;;;5050474;28;20461;-76
2022/03/07 05:47:08;;;;;;;22.75;15.13;;;-1.00;99.90;;;;;;5050043;28;20091;-74
2022/03/07 05:49:34;;;;;;;22.25;14.30;;;-1.00;99.90;;;;;;5017564;28;20137;-74
2022/03/07 05:52:00;;;;;;;22.95;14.80;;;-1.00;99.90;;;;;;5049807;28;20052;-75
2022/03/07 05:54:26;;;;;;;20.10;13.65;;;-0.90;99.90;;;;;;5050504;28;20037;-75
2022/03/07 05:56:51;;;;;;;23.75;14.07;;;-0.70;99.90;;;;;;5016666;28;20053;-76
2022/03/07 05:59:17;;;;;;;24.08;13.90;;;-0.70;99.90;;;;;;5033575;28;20048;-76
2022/03/07 06:01:43;;;;;;;24.63;13.98;;;-0.80;99.90;;;;;;5033440;28;20044;-76
2022/03/07 06:04:09;;;;;;;18.98;13.35;;;-0.60;99.90;;;;;;5050112;28;20442;-73
2022/03/07 06:06:35;;;;;;;19.77;12.90;;;-0.60;99.90;;;;;;5033319;28;20048;-74
2022/03/07 06:09:01;;;;;;;22.95;12.50;;;-0.70;99.90;;;;;;5035614;28;20131;-74
2022/03/07 06:11:27;;;;;;;21.85;14.05;;;-0.70;99.90;;;;;;5036760;28;20053;-74
2022/03/07 06:13:53;;;;;;;19.80;11.68;;;-0.70;99.90;;;;;;5053601;28;20056;-75
2022/03/07 06:16:19;;;;;;;18.80;11.57;;;-0.80;99.90;;;;;;5036791;28;20045;-74
2022/03/07 06:18:44;;;;;;;18.95;11.65;;;-0.70;99.90;;;;;;5036640;28;20450;-76
2022/03/07 06:21:10;;;;;;;16.38;11.60;;;-0.70;99.90;;;;;;5053092;28;20040;-75
2022/03/07 06:23:36;;;;;;;17.50;10.75;;;-0.60;99.90;;;;;;5053129;28;20408;-76
2022/03/07 06:26:05;;;;;;;18.75;12.25;;;-0.60;99.90;;;;;;5036602;28;20048;-75
2022/03/07 06:28:31;;;;;;;18.73;11.45;;;-0.50;99.90;;;;;;5053125;28;20119;-76
2022/03/07 06:30:57;;;;;;;20.73;12.32;;;-0.60;99.90;;;;;;5036861;28;20052;-76
2022/03/07 06:33:23;;;;;;;17.83;12.68;;;-0.40;99.90;;;;;;5036376;28;20087;-75
2022/03/07 06:35:48;;;;;;;18.85;11.85;;;-0.50;99.90;;;;;;5020079;28;20076;-75
2022/03/07 06:38:15;;;;;;;17.25;12.02;;;-0.40;99.90;;;;;;5036363;28;20068;-75
2022/03/07 06:40:40;;;;;;;18.90;11.98;;;-0.20;99.90;;;;;;5053073;28;20045;-77
2022/03/07 06:43:06;;;;;;;19.95;12.95;;;-0.40;99.90;;;;;;5052831;28;20087;-75
2022/03/07 06:45:32;;;;;;;21.83;13.02;;;-0.30;99.90;;;;;;5019956;28;20037;-75
2022/03/07 06:47:59;;;;;;;19.88;12.82;;;-0.40;99.90;;;;;;5052698;28;20049;-74
2022/03/07 06:50:25;;;;;;;20.23;12.90;;;-0.40;99.90;;;;;;5052885;28;20048;-76
2022/03/07 06:52:50;;;;;;;20.25;12.93;;;-0.40;99.90;;;;;;5052678;28;20091;-76
2022/03/07 06:55:16;;;;;;;15.77;12.18;;;-0.30;99.90;;;;;;5019516;28;20448;-76
2022/03/07 06:57:42;;;;;;;17.38;11.95;;;-0.40;99.90;;;;;;5036137;28;20037;-76
2022/03/07 07:00:13;;;;;;;21.25;12.52;;;-0.40;99.90;;;;;;5036124;28;20041;-75
2022/03/07 07:02:39;;;;;;;18.48;12.73;;;-0.40;99.90;;;;;;5052834;28;20044;-76
2022/03/07 07:05:06;;;;;;;19.63;12.45;;;-0.40;99.90;;;;;;5019492;28;20060;-76
2022/03/07 07:07:32;;;;;;;20.48;12.75;;;-0.40;99.90;;;;;;5019754;28;20043;-77
2022/03/07 07:09:58;;;;;;;20.50;13.02;;;-0.20;99.90;;;;;;5052961;28;20159;-76
2022/03/07 07:12:24;;;;;;;19.92;13.52;;;-0.10;99.90;;;;;;5052372;28;20175;-76
2022/03/07 07:14:50;;;;;;;19.70;12.23;;;-0.10;99.90;;;;;;5052834;28;20094;-76
2022/03/07 07:17:17;;;;;;;20.58;12.95;;;-0.30;99.90;;;;;;5052041;28;20033;-75
2022/03/07 07:19:43;;;;;;;19.10;13.18;;;0.20;99.90;;;;;;5050913;28;20073;-75
2022/03/07 07:22:09;;;;;;;23.27;13.65;;;0.10;99.90;;;;;;5052037;28;20045;-75
2022/03/07 07:24:35;;;;;;;19.60;12.52;;;0.00;99.90;;;;;;5018957;28;20141;-75
2022/03/07 07:27:01;;;;;;;22.42;13.07;;;;;;;;;;5018758;28;20076;-74
2022/03/07 07:29:27;;;;;;;20.63;12.25;;;;;;;;;;5035203;28;20045;-76
2022/03/07 07:31:53;;;;;;;20.45;14.50;;;;;;;;;;5051589;28;20127;-75
2022/03/07 07:34:20;;;;;;;22.67;13.60;;;0.40;99.90;;;;;;5035227;28;20043;-74
2022/03/07 07:36:46;;;;;;;20.00;13.85;;;0.70;99.90;;;;;;5035065;28;20047;-74
2022/03/07 07:39:11;;;;;;;24.83;15.52;;;0.70;99.90;;;;;;5051605;28;20391;-74
2022/03/07 07:41:37;;;;;;;25.98;17.00;;;0.90;99.90;;;;;;5034885;28;20110;-74
2022/03/07 07:44:03;;;;;;;23.58;15.98;;;1.00;99.90;;;;;;5034880;28;20032;-74
2022/03/07 07:46:29;;;;;;;23.23;14.85;;;1.20;99.90;;;;;;5051575;28;20098;-75
2022/03/07 07:48:55;;;;;;;24.05;14.77;;;1.40;99.90;;;;;;5034738;28;20041;-74
2022/03/07 07:51:21;;;;;;;21.30;13.85;;;1.50;99.90;;;;;;5051383;28;20043;-75
2022/03/07 07:53:47;;;;;;;21.27;13.75;;;1.70;99.90;;;;;;5034783;28;20044;-76
2022/03/07 07:56:12;;;;;;;20.08;13.60;;;1.90;99.90;;;;;;5051364;28;20053;-76
2022/03/07 07:58:39;;;;;;;18.92;13.07;;;2.00;99.90;;;;;;5051514;28;20105;-76
2022/03/07 08:01:05;;;;;;;22.45;13.77;;;2.10;99.90;;;;;;5051755;28;20045;-76
2022/03/07 08:03:31;;;;;;;27.33;13.55;;;2.20;99.90;;;;;;5051290;28;20046;-76
2022/03/07 08:05:57;;;;;;;18.33;12.95;;;2.30;99.90;;;;;;5051696;28;20056;-76
2022/03/07 08:08:23;;;;;;;17.80;12.43;;;2.70;99.90;;;;;;5034674;28;20041;-76
2022/03/07 08:10:49;;;;;;;21.50;13.32;;;2.70;99.90;;;;;;5034514;28;20499;-76
2022/03/07 08:13:15;;;;;;;16.95;12.45;;;2.60;99.90;;;;;;5034539;28;20538;-74
2022/03/07 08:15:40;;;;;;;20.83;13.23;;;2.70;99.90;;;;;;5051373;28;20033;-75
2022/03/07 08:18:07;;;;;;;20.23;11.98;;;2.90;99.90;;;;;;5034435;28;20130;-75
2022/03/07 08:20:33;;;;;;;19.42;12.02;;;3.00;99.90;;;;;;5050785;28;20040;-75
2022/03/07 08:22:59;;;;;;;14.85;10.73;;;3.10;99.90;;;;;;5050692;28;20037;-75
2022/03/07 08:25:25;;;;;;;16.17;11.50;;;3.20;99.90;;;;;;5052041;28;20037;-76
2022/03/07 08:27:52;;;;;;;17.15;9.95;;;;;;;;;;5050748;28;20048;-75
2022/03/07 08:30:20;;;;;;;17.75;10.60;;;;;;;;;;5050628;28;20036;-76
2022/03/07 08:32:46;;;;;;;16.08;8.55;;;;;;;;;;5050532;28;20045;-75
2022/03/07 08:35:13;;;;;;;14.00;9.55;;;3.80;99.90;;;;;;5050624;28;20041;-75
2022/03/07 08:37:39;;;;;;;13.20;7.85;;;3.80;99.90;;;;;;5034665;28;20041;-76
2022/03/07 08:40:07;;;;;;;14.13;9.25;;;3.90;99.90;;;;;;5034531;28;20036;-75
2022/03/07 08:42:34;;;;;;;12.90;7.80;;;4.10;99.90;;;;;;5034240;28;20056;-76
2022/03/07 08:45:00;;;;;;;14.88;7.97;;;4.10;99.90;;;;;;5034056;28;20099;-76
2022/03/07 08:47:26;;;;;;;12.70;6.95;;;4.20;99.90;;;;;;5034278;28;20037;-76
2022/03/07 08:49:53;;;;;;;13.00;6.93;;;4.30;99.90;;;;;;5050621;28;20071;-75
2022/03/07 08:52:19;;;;;;;10.90;6.40;;;4.40;99.90;;;;;;5050522;28;20071;-76
2022/03/07 08:54:46;;;;;;;9.98;6.85;;;4.80;99.90;;;;;;5033989;28;20485;-76
2022/03/07 08:57:13;;;;;;;10.98;7.22;;;4.60;99.90;;;;;;5034085;28;20045;-76
2022/03/07 08:59:39;;;;;;;13.60;7.35;;;4.60;99.90;;;;;;5050556;28;20052;-76
2022/03/07 09:02:05;;;;;;;12.30;6.97;;;4.70;99.90;;;;;;5017955;28;20045;-76
2022/03/07 09:04:31;;;;;;;11.10;6.75;;;4.80;99.90;;;;;;5050525;28;20123;-76
2022/03/07 09:06:56;;;;;;;12.32;7.03;;;5.60;99.90;;;;;;5050500;28;20048;-76
2022/03/07 09:09:22;;;;;;;10.82;7.75;;;4.80;99.90;;;;;;5034145;28;20044;-76
2022/03/07 09:11:48;;;;;;;8.80;6.18;;;4.90;99.90;;;;;;5017548;28;20471;-76
2022/03/07 09:14:15;;;;;;;9.88;7.22;;;5.00;99.90;;;;;;5034097;28;20052;-76
2022/03/07 09:16:42;;;;;;;12.52;6.70;;;5.10;99.90;;;;;;5050225;28;20040;-76
2022/03/07 09:19:08;;;;;;;9.38;5.47;;;5.10;99.90;;;;;;5050740;28;20033;-76
2022/03/07 09:21:34;;;;;;;8.90;5.28;;;5.20;99.90;;;;;;5050723;28;20055;-75
2022/03/07 09:23:59;;;;;;;9.70;5.47;;;5.30;99.90;;;;;;5050482;28;20098;-76
2022/03/07 09:26:25;;;;;;;7.70;5.32;;;5.40;99.90;;;;;;5050860;28;20044;-76
2022/03/07 09:28:52;;;;;;;10.10;6.43;;;5.50;99.90;;;;;;5050333;28;20041;-76
2022/03/07 09:31:18;;;;;;;8.75;5.82;;;6.00;99.90;;;;;;5033651;28;20037;-76
2022/03/07 09:33:44;;;;;;;9.65;5.75;;;;;;;;;;5033654;28;20130;-77
2022/03/07 09:36:10;;;;;;;11.35;4.97;;;5.70;99.90;;;;;;5033555;28;20124;-76
2022/03/07 09:38:36;;;;;;;9.40;4.43;;;5.90;99.90;;;;;;5033681;28;20486;-76
2022/03/07 09:41:03;;;;;;;5.78;3.72;;;5.90;99.90;;;;;;5033663;28;20037;-76
2022/03/07 09:43:29;;;;;;;8.73;4.10;;;6.00;99.90;;;;;;5051932;28;20127;-76
2022/03/07 09:45:55;;;;;;;7.95;3.80;;;6.10;99.90;;;;;;5054167;28;20051;-77
2022/03/07 09:48:23;;;;;;;9.98;3.72;;;6.30;99.90;;;;;;5037346;28;20044;-74
2022/03/07 09:50:49;;;;;;;6.75;3.40;;;6.20;99.90;;;;;;5037766;28;20045;-75
2022/03/07 09:53:17;;;;;;;5.22;3.42;;;6.60;99.90;;;;;;5037435;28;20043;-76
2022/03/07 09:55:44;;;;;;;11.43;4.40;;;6.60;99.90;;;;;;5053892;28;20049;-76
2022/03/07 09:58:10;;;;;;;7.13;3.33;;;6.70;99.90;;;;;;5053684;28;20098;-76
2022/03/07 10:00:40;;;;;;;6.72;3.42;;;6.70;99.90;;;;;;5037113;28;20044;-76
2022/03/07 10:03:09;;;;;;;9.73;3.42;;;7.10;99.90;;;;;;5037685;28;20115;-76
2022/03/07 10:05:42;;;;;;;5.88;2.92;;;7.10;99.90;;;;;;5053690;28;20045;-76
2022/03/07 10:08:09;;;;;;;6.60;2.80;;;7.20;99.90;;;;;;5037121;28;20052;-76
2022/03/07 10:10:43;;;;;;;5.80;2.65;;;7.20;99.90;;;;;;5053895;28;20045;-76
2022/03/07 10:13:10;;;;;;;7.85;3.60;;;7.10;99.90;;;;;;5036997;28;20159;-76
2022/03/07 10:15:38;;;;;;;7.53;3.33;;;7.20;99.90;;;;;;5053710;28;20044;-75
2022/03/07 10:18:04;;;;;;;12.77;3.75;;;7.20;99.90;;;;;;5036871;28;20048;-75
2022/03/07 10:20:31;;;;;;;5.47;2.67;;;7.50;99.90;;;;;;5036761;28;20067;-76
2022/03/07 10:22:58;;;;;;;6.20;2.88;;;7.80;99.90;;;;;;5020760;28;20036;-76
2022/03/07 10:25:30;;;;;;;8.18;3.45;;;7.80;99.90;;;;;;5053581;28;20476;-76
2022/03/07 10:27:57;;;;;;;9.15;3.50;;;8.00;99.90;;;;;;5053412;28;20566;-76
2022/03/07 10:30:26;;;;;;;10.73;3.15;;;7.60;99.90;;;;;;5053573;28;20040;-76
2022/03/07 10:33:00;;;;;;;7.28;2.55;;;7.60;99.90;;;;;;5036491;28;20045;-76
2022/03/07 10:35:32;;;;;;;6.00;2.97;;;7.80;99.90;;;;;;5053055;28;20033;-75
2022/03/07 10:37:58;;;;;;;;;;;7.70;99.90;;;;;;5036981;28;20264;-76
2022/03/07 10:40:24;;;;;;;7.57;3.20;;;7.70;99.90;;;;;;5036665;28;19921;-75
2022/03/07 10:42:54;;;;;;;8.57;2.78;;;7.80;99.90;;;;;;5053042;28;20439;-76
2022/03/07 10:45:22;;;;;;;6.28;2.75;;;7.80;99.90;;;;;;5052849;28;20052;-76
2022/03/07 10:47:54;;;;;;;6.63;2.75;;;7.60;99.90;;;;;;5052948;28;20130;-76
2022/03/07 10:50:25;;;;;;;6.20;3.20;;;7.50;99.90;;;;;;5052933;28;20093;-75
2022/03/07 10:52:52;;;;;;;;;;;7.30;99.90;;;;;;5053199;28;20045;-75
2022/03/07 10:55:24;;;;;;;5.63;2.83;;;7.30;99.90;;;;;;5035746;28;19971;-76
2022/03/07 10:57:50;;;;;;;6.78;3.20;;;7.50;99.90;;;;;;5036461;28;20045;-75
2022/03/07 11:00:17;;;;;;;4.75;2.63;;;7.70;99.90;;;;;;5036650;28;20052;-76
2022/03/07 11:02:47;;;;;;;6.20;2.67;;;7.90;99.90;;;;;;5036498;28;20086;-76
2022/03/07 11:05:16;;;;;;;4.60;2.63;;;7.80;99.90;;;;;;5053040;28;20067;-76
2022/03/07 11:07:45;;;;;;;4.47;2.40;;;7.90;99.90;;;;;;5019819;28;20404;-76
2022/03/07 11:10:13;;;;;;;4.30;2.47;;;7.90;99.90;;;;;;5052507;28;20041;-76
2022/03/07 11:12:39;;;;;;;7.30;3.58;;;8.10;99.90;;;;;;5052153;28;20080;-76
2022/03/07 11:15:09;;;;;;;5.95;2.47;;;7.90;99.90;;;;;;5052604;28;20076;-76
2022/03/07 11:17:46;;;;;;;5.45;3.00;;;7.90;99.90;;;;;;5052542;28;20450;-75
2022/03/07 11:20:15;;;;;;;6.07;2.88;;;7.90;99.90;;;;;;5052342;28;20053;-74
2022/03/07 11:22:41;;;;;;;5.38;2.70;;;7.80;99.90;;;;;;5052543;28;20542;-76
2022/03/07 11:25:08;;;;;;;6.97;2.10;;;7.90;99.90;;;;;;5052195;28;20049;-75
2022/03/07 11:27:36;;;;;;;3.15;1.98;;;8.10;99.90;;;;;;5052512;28;20044;-76
2022/03/07 11:30:16;;;;;;;5.10;1.88;;;8.30;99.90;;;;;;5052467;28;20507;-76
2022/03/07 11:32:42;;;;;;;5.80;1.85;;;8.40;99.90;;;;;;5052105;28;20045;-76
2022/03/07 11:35:09;;;;;;;6.90;2.20;;;8.60;99.90;;;;;;5035528;28;20041;-74
2022/03/07 11:37:35;;;;;;;4.05;1.88;;;8.90;99.90;;;;;;5052150;28;20048;-76
2022/03/07 11:40:23;;;;;;;6.43;1.90;;;9.40;99.90;;;;;;5035360;28;20036;-76
2022/03/07 11:42:49;;;;;;;3.33;1.52;;;9.50;99.90;;;;;;5035644;28;20131;-77
2022/03/07 11:45:19;;;;;;;3.03;1.73;;;9.50;99.90;;;;;;5051959;28;20048;-77
2022/03/07 11:47:46;;;;;;;3.72;2.00;;;9.90;99.90;;;;;;5052081;28;20045;-77
2022/03/07 11:50:15;;;;;;;4.07;2.00;;;10.40;99.90;;;;;;5035083;28;20037;-76
2022/03/07 11:52:42;;;;;;;5.60;2.20;;;10.00;99.90;;;;;;5051703;28;20419;-77
2022/03/07 11:55:19;;;;;;;7.10;2.20;;;10.30;99.90;;;;;;5034949;28;20057;-76
2022/03/07 11:57:48;;;;;;;5.47;1.95;;;10.50;99.90;;;;;;5051409;28;20072;-76
2022/03/07 12:00:22;;;;;;;5.55;2.22;;;10.50;99.90;;;;;;5051849;28;20041;-75
2022/03/07 12:02:51;;;;;;;2.40;1.70;;;10.40;99.90;;;;;;5051281;28;20065;-75
2022/03/07 12:05:28;;;;;;;3.17;1.50;;;10.50;99.90;;;;;;5051086;28;20542;-75
2022/03/07 12:08:09;;;;;;;3.28;1.30;;;10.60;99.90;;;;;;5034783;28;20056;-76
2022/03/07 12:10:35;;;;;;;2.00;1.42;;;10.70;99.90;;;;;;5051310;28;20047;-76
2022/03/07 12:13:11;;;;;;;3.10;1.65;;;10.90;99.90;;;;;;5034467;28;20090;-76
2022/03/07 12:15:48;;;;;;;2.63;1.45;;;10.60;99.90;;;;;;5034683;28;20123;-76
2022/03/07 12:18:15;;;;;;;4.78;1.70;;;10.90;99.90;;;;;;5034836;28;20550;-75
2022/03/07 12:20:55;;;;;;;3.53;1.60;;;11.20;99.90;;;;;;5034823;28;20041;-75
2022/03/07 12:23:26;;;;;;;4.07;1.97;;;11.60;99.90;;;;;;5051655;28;20044;-75
2022/03/07 12:26:00;;;;;;;1.92;1.23;;;12.00;99.90;;;;;;5034494;28;20095;-75
2022/03/07 12:28:36;;;;;;;2.70;1.20;;;12.30;99.90;;;;;;5051245;28;20041;-77
2022/03/07 12:31:04;;;;;;;4.43;1.70;;;12.40;99.90;;;;;;5050830;28;20106;-76
2022/03/07 12:33:30;;;;;;;4.82;1.80;;;13.10;99.90;;;;;;5050713;28;20045;-76
2022/03/07 12:36:05;;;;;;;5.75;1.60;;;12.70;99.90;;;;;;5051089;28;20037;-76
2022/03/07 12:38:31;;;;;;;2.33;1.20;;;12.40;99.90;;;;;;5034336;28;20098;-77